Lobo

Go HERE for most recent data if this page is not up to date.

Jump to table bottom
Date/Time Temp deg F RH % 24 Hr Snow (in) Snow Depth (in) H2O (in)
07/12 19:00 62.5 51 "NAN" -0.2 0.00
07/12 18:00 65.0 47 "NAN" -0.6 0.02
07/12 17:00 71.9 22 "NAN" -0.7 0.00
07/12 16:00 71.8 20 "NAN" -0.5 0.00
07/12 15:00 71.5 21 "NAN" -0.6 0.00
07/12 14:00 70.1 23 "NAN" -0.4 0.00
07/12 13:00 69.6 23 "NAN" -0.1 0.00
07/12 12:00 68.6 21 "NAN" -0.6 0.00
07/12 11:00 67.6 22 "NAN" 0.0 0.00
07/12 10:00 65.3 29 "NAN" -0.3 0.00
07/12 09:00 62.7 26 "NAN" -0.5 0.00
07/12 08:00 60.6 29 "NAN" 0.2 0.00
07/12 07:00 58.1 30 "NAN" -0.0 0.00
07/12 06:00 57.9 30 "NAN" -0.2 0.00
07/12 05:00 58.2 29 "NAN" -0.3 0.00
07/12 04:00 58.9 33 "NAN" -0.4 0.00
07/12 03:00 59.8 32 "NAN" -0.7 0.00
07/12 02:00 61.0 34 "NAN" -0.8 0.00
07/12 01:00 62.8 37 "NAN" -0.7 0.00
07/12 00:00 63.8 33 "NAN" -0.3 0.00
07/11 23:00 65.7 33 "NAN" 0.0 0.00
07/11 22:00 67.5 29 "NAN" -0.4 0.00
07/11 21:00 68.8 19 "NAN" -0.8 0.00
07/11 20:00 69.8 19 "NAN" -0.8 0.00
07/11 19:00 72.2 19 "NAN" -0.6 0.00
07/11 18:00 73.5 19 "NAN" -0.0 0.00
07/11 17:00 73.8 20 "NAN" -0.1 0.00
07/11 16:00 73.7 22 "NAN" -0.2 0.00
07/11 15:00 73.4 20 "NAN" -0.9 0.00
07/11 14:00 73.5 21 "NAN" -0.3 0.00
07/11 13:00 72.8 24 "NAN" -1.2 0.00
07/11 12:00 71.4 27 "NAN" -1.4 0.00
07/11 11:00 69.4 27 "NAN" -1.0 0.00
07/11 10:00 66.5 29 "NAN" -1.2 0.00
07/11 09:00 65.2 31 "NAN" 0.0 0.00
07/11 08:00 63.3 27 "NAN" 0.1 0.00
07/11 07:00 61.1 29 "NAN" -1.1 0.00
07/11 06:00 61.0 30 "NAN" -0.5 0.00
07/11 05:00 62.0 30 "NAN" 0.2 0.00
07/11 04:00 63.3 27 "NAN" 0.2 0.00
07/11 03:00 63.6 28 "NAN" -0.9 0.00
07/11 02:00 62.5 28 "NAN" -0.6 0.00
07/11 01:00 62.7 27 "NAN" -0.9 0.00
07/11 00:00 64.0 28 "NAN" -0.6 0.00
.